Time;durP1;ratioP1;P1;durP2;ratioP2;P2;SDS_P1;SDS_P2;PMS_P1;PMS_P2;Temp;Humidity;BMP_temperature;BMP_pressure;BME280_temperature;BME280_humidity;BME280_pressure;Samples;Min_cycle;Max_cycle;Signal;HPM_P1;HPM_P2
2022/08/26 00:00:41;;;;;;;7.35;3.28;;;24.50;68.60;;;;;;5046076;28;20277;-71
2022/08/26 00:03:08;;;;;;;8.02;3.65;;;24.40;68.90;;;;;;5033453;28;20292;-71
2022/08/26 00:05:35;;;;;;;8.43;3.03;;;24.40;69.50;;;;;;5050399;28;20226;-72
2022/08/26 00:08:03;;;;;;;6.93;3.35;;;24.40;69.60;;;;;;5051053;28;20209;-72
2022/08/26 00:10:30;;;;;;;9.68;3.45;;;24.30;69.70;;;;;;5049222;28;20211;-72
2022/08/26 00:12:57;;;;;;;9.88;3.40;;;24.30;69.60;;;;;;5047913;28;20548;-72
2022/08/26 00:15:24;;;;;;;8.05;3.63;;;24.30;70.00;;;;;;5050663;28;20202;-72
2022/08/26 00:17:52;;;;;;;7.03;2.90;;;24.30;70.20;;;;;;5046390;28;20217;-72
2022/08/26 00:20:23;;;;;;;8.75;3.50;;;24.30;70.10;;;;;;5041661;28;20300;-72
2022/08/26 00:22:50;;;;;;;8.07;3.60;;;24.30;70.60;;;;;;5052768;28;20234;-72
2022/08/26 00:25:18;;;;;;;6.43;3.05;;;24.20;71.30;;;;;;5053566;28;20236;-72
2022/08/26 00:27:46;;;;;;;10.90;3.25;;;24.20;71.30;;;;;;5053246;28;20209;-71
2022/08/26 00:30:16;;;;;;;5.85;2.80;;;24.20;71.40;;;;;;5038431;28;20214;-72
2022/08/26 00:32:43;;;;;;;5.32;2.88;;;24.20;72.10;;;;;;5051741;28;20202;-71
2022/08/26 00:35:11;;;;;;;4.53;2.80;;;24.20;72.00;;;;;;5040364;28;20248;-72
2022/08/26 00:37:39;;;;;;;8.25;3.42;;;24.20;72.30;;;;;;5046406;28;20213;-73
2022/08/26 00:40:07;;;;;;;5.88;3.25;;;24.10;72.80;;;;;;5053106;28;20400;-73
2022/08/26 00:42:35;;;;;;;6.95;3.55;;;24.10;73.30;;;;;;5044565;28;20214;-72
2022/08/26 00:45:02;;;;;;;10.82;3.15;;;24.10;73.80;;;;;;5043188;28;20412;-73
2022/08/26 00:47:33;;;;;;;5.88;3.22;;;24.10;74.00;;;;;;5048805;28;20229;-73
2022/08/26 00:50:02;;;;;;;8.23;3.28;;;24.10;73.80;;;;;;5035583;28;20330;-73
2022/08/26 00:52:29;;;;;;;8.52;2.97;;;24.10;73.10;;;;;;5034480;28;20442;-73
2022/08/26 00:55:03;;;;;;;8.32;3.08;;;24.00;74.00;;;;;;5034746;28;20203;-73
2022/08/26 00:57:31;;;;;;;7.20;2.90;;;23.90;73.50;;;;;;5040709;28;20320;-73
2022/08/26 01:00:02;;;;;;;5.72;3.35;;;24.00;73.90;;;;;;5039756;28;20288;-73
2022/08/26 01:02:29;;;;;;;10.20;3.50;;;24.00;74.00;;;;;;5034662;28;20208;-73
2022/08/26 01:05:01;;;;;;;8.40;3.00;;;24.00;73.80;;;;;;5040453;28;20246;-73
2022/08/26 01:07:31;;;;;;;10.38;3.97;;;24.00;74.10;;;;;;5052980;28;20225;-73
2022/08/26 01:09:59;;;;;;;8.55;3.22;;;23.90;73.80;;;;;;5053649;28;20236;-72
2022/08/26 01:12:29;;;;;;;6.57;3.13;;;24.00;73.80;;;;;;5046432;28;20209;-72
2022/08/26 01:14:56;;;;;;;5.80;2.85;;;23.90;74.30;;;;;;5041969;28;20211;-73
2022/08/26 01:17:24;;;;;;;4.15;2.65;;;23.90;74.90;;;;;;5036621;28;20229;-73
2022/08/26 01:19:56;;;;;;;5.45;3.08;;;23.90;75.30;;;;;;5050175;28;20625;-72
2022/08/26 01:22:28;;;;;;;8.50;3.50;;;23.90;75.70;;;;;;5047646;28;20700;-73
2022/08/26 01:24:58;;;;;;;10.05;2.67;;;23.90;75.90;;;;;;5044334;28;20288;-73
2022/08/26 01:27:29;;;;;;;5.65;2.90;;;23.80;75.40;;;;;;5045887;28;20892;-73
2022/08/26 01:29:57;;;;;;;13.73;3.38;;;23.80;74.70;;;;;;5034790;28;20206;-72
2022/08/26 01:32:26;;;;;;;9.48;3.65;;;23.80;75.30;;;;;;5043615;28;20221;-72
2022/08/26 01:34:53;;;;;;;7.35;3.40;;;23.70;76.00;;;;;;5036556;28;20624;-73
2022/08/26 01:37:23;;;;;;;8.85;3.22;;;23.70;75.80;;;;;;5033308;28;20237;-72
2022/08/26 01:39:54;;;;;;;6.03;3.05;;;23.70;75.20;;;;;;5032635;28;20644;-72
2022/08/26 01:42:24;;;;;;;4.93;3.10;;;23.70;75.10;;;;;;5041285;28;20216;-72
2022/08/26 01:44:54;;;;;;;9.30;3.30;;;23.70;75.40;;;;;;5033100;28;20230;-73
2022/08/26 01:47:25;;;;;;;3.72;2.83;;;23.70;76.20;;;;;;5034720;28;20686;-73
2022/08/26 01:49:55;;;;;;;8.48;3.03;;;23.60;76.80;;;;;;5032098;28;20198;-73
2022/08/26 01:52:26;;;;;;;5.95;2.85;;;23.70;77.30;;;;;;5046722;28;20193;-73
2022/08/26 01:54:55;;;;;;;4.20;2.90;;;23.60;77.10;;;;;;5039684;28;20672;-73
2022/08/26 01:57:24;;;;;;;6.93;3.35;;;23.60;77.80;;;;;;5052671;28;20201;-73
2022/08/26 01:59:53;;;;;;;9.13;3.10;;;23.60;78.00;;;;;;5039000;28;20210;-73
2022/08/26 02:02:20;;;;;;;5.68;3.22;;;23.60;77.90;;;;;;5054131;28;20232;-73
2022/08/26 02:04:49;;;;;;;3.83;2.80;;;23.50;77.90;;;;;;5041357;28;20224;-73
2022/08/26 02:07:19;;;;;;;5.50;3.30;;;23.50;77.10;;;;;;5039518;28;20195;-73
2022/08/26 02:09:46;;;;;;;4.35;2.90;;;23.50;77.70;;;;;;5032590;28;20655;-73
2022/08/26 02:12:15;;;;;;;6.95;3.38;;;23.50;78.60;;;;;;5035140;28;20201;-73
2022/08/26 02:14:49;;;;;;;5.15;2.97;;;23.60;79.20;;;;;;5041767;28;20246;-73
2022/08/26 02:17:17;;;;;;;6.07;3.10;;;23.50;78.60;;;;;;5047706;28;20314;-73
2022/08/26 02:19:47;;;;;;;12.93;4.47;;;23.50;78.70;;;;;;5043499;28;20206;-73
2022/08/26 02:22:17;;;;;;;6.57;3.58;;;23.40;79.60;;;;;;5036198;28;20683;-73
2022/08/26 02:24:48;;;;;;;3.97;2.90;;;23.40;79.80;;;;;;5033156;28;20209;-73
2022/08/26 02:27:15;;;;;;;9.32;3.28;;;23.40;80.20;;;;;;5035565;28;20237;-73
2022/08/26 02:29:46;;;;;;;5.28;2.95;;;23.40;80.20;;;;;;5039578;28;20217;-71
2022/08/26 02:32:15;;;;;;;5.90;3.25;;;23.40;80.40;;;;;;5039205;28;20236;-72
2022/08/26 02:34:42;;;;;;;5.93;2.97;;;23.40;79.00;;;;;;5046769;28;20209;-71
2022/08/26 02:37:10;;;;;;;9.52;3.00;;;23.30;78.40;;;;;;5035762;28;20202;-72
2022/08/26 02:39:41;;;;;;;6.75;3.30;;;23.30;78.00;;;;;;5032689;28;20226;-73
2022/08/26 02:42:08;;;;;;;4.63;3.08;;;23.30;79.40;;;;;;5045534;28;20230;-73
2022/08/26 02:44:35;;;;;;;5.45;3.03;;;23.30;80.80;;;;;;5032097;28;20220;-73
2022/08/26 02:47:03;;;;;;;5.60;3.50;;;23.30;82.20;;;;;;5050046;28;20217;-72
2022/08/26 02:49:30;;;;;;;7.90;3.78;;;23.30;81.90;;;;;;5046510;28;20202;-72
2022/08/26 02:51:57;;;;;;;12.23;4.05;;;23.20;82.10;;;;;;5052546;28;20577;-72
2022/08/26 02:54:24;;;;;;;7.45;3.20;;;23.20;82.60;;;;;;5041526;28;20579;-73
2022/08/26 02:56:51;;;;;;;9.20;3.67;;;23.20;82.60;;;;;;5049879;28;20570;-72
2022/08/26 02:59:18;;;;;;;7.50;3.67;;;23.20;82.70;;;;;;5052082;28;20605;-73
2022/08/26 03:01:46;;;;;;;11.60;3.80;;;23.20;83.20;;;;;;5048298;28;20261;-72
2022/08/26 03:04:14;;;;;;;9.93;3.72;;;23.10;83.40;;;;;;5032225;28;20242;-72
2022/08/26 03:06:41;;;;;;;12.57;4.10;;;23.10;83.70;;;;;;5033889;28;20222;-72
2022/08/26 03:09:08;;;;;;;8.10;4.07;;;23.00;83.80;;;;;;5051776;28;20202;-73
2022/08/26 03:11:36;;;;;;;6.45;3.08;;;23.00;84.10;;;;;;5040994;28;20213;-72
2022/08/26 03:14:04;;;;;;;6.22;3.67;;;23.00;84.40;;;;;;5043832;28;20206;-73
2022/08/26 03:16:32;;;;;;;7.72;3.42;;;23.00;84.70;;;;;;5041363;28;20701;-73
2022/08/26 03:18:59;;;;;;;6.65;3.53;;;23.00;84.80;;;;;;5035291;28;20252;-72
2022/08/26 03:21:28;;;;;;;9.60;4.13;;;23.00;84.20;;;;;;5043062;28;20218;-72
2022/08/26 03:23:55;;;;;;;7.25;3.75;;;23.00;84.20;;;;;;5031821;28;20648;-72
2022/08/26 03:26:22;;;;;;;13.45;5.30;;;23.00;84.50;;;;;;5041923;28;20280;-72
2022/08/26 03:31:33;;;;;;;10.88;4.18;;;22.90;84.70;;;;;;5056149;28;20201;-72
2022/08/26 03:34:00;;;;;;;6.03;3.22;;;22.90;84.30;;;;;;5051014;28;20240;-72
2022/08/26 03:36:29;;;;;;;6.15;3.22;;;22.80;84.40;;;;;;5050096;28;20743;-72
2022/08/26 03:38:55;;;;;;;5.63;3.35;;;22.80;84.90;;;;;;5055274;28;20724;-72
2022/08/26 03:41:22;;;;;;;9.07;3.75;;;22.80;84.90;;;;;;5045831;28;20209;-73
2022/08/26 03:43:49;;;;;;;6.75;3.25;;;22.80;85.30;;;;;;5035793;28;20639;-73
2022/08/26 03:46:17;;;;;;;9.93;3.60;;;22.80;86.00;;;;;;5033839;28;20322;-73
2022/08/26 03:48:44;;;;;;;7.40;3.70;;;22.80;86.50;;;;;;5035534;28;20210;-73
2022/08/26 03:51:13;;;;;;;9.95;4.05;;;22.80;86.70;;;;;;5042468;28;20214;-73
2022/08/26 03:53:42;;;;;;;11.85;6.68;;;22.70;86.40;;;;;;5049745;28;20626;-72
2022/08/26 03:56:09;;;;;;;10.73;5.55;;;22.60;86.10;;;;;;5035654;28;20207;-74
2022/08/26 03:58:36;;;;;;;6.40;5.13;;;22.70;86.10;;;;;;5046215;28;20226;-73
2022/08/26 04:01:04;;;;;;;9.10;3.55;;;22.70;86.40;;;;;;5046953;28;20210;-72
2022/08/26 04:06:16;;;;;;;5.72;3.47;;;22.70;84.80;;;;;;5045031;28;20237;-73
2022/08/26 04:08:44;;;;;;;8.25;3.28;;;22.70;84.20;;;;;;5037042;28;20210;-72
2022/08/26 04:11:18;;;;;;;6.10;2.95;;;22.80;83.70;;;;;;5045207;28;20207;-72
2022/08/26 04:13:45;;;;;;;5.70;3.90;;;22.80;83.10;;;;;;5047772;28;20210;-73
2022/08/26 04:16:12;;;;;;;4.82;3.40;;;22.80;83.30;;;;;;5054394;28;20666;-73
2022/08/26 04:18:39;;;;;;;9.23;3.55;;;22.80;83.90;;;;;;5039973;28;20219;-73
2022/08/26 04:21:06;;;;;;;9.07;4.03;;;22.80;83.60;;;;;;5035398;28;20210;-73
2022/08/26 04:23:33;;;;;;;7.50;4.53;;;22.90;83.30;;;;;;5045659;28;20410;-72
2022/08/26 04:26:02;;;;;;;11.20;4.80;;;23.00;83.70;;;;;;5040250;28;20232;-72
2022/08/26 04:28:30;;;;;;;8.30;4.80;;;22.90;84.70;;;;;;5042995;28;20210;-72
2022/08/26 04:30:57;;;;;;;12.18;4.90;;;22.90;85.90;;;;;;5052713;28;20206;-73
2022/08/26 04:33:24;;;;;;;11.50;5.05;;;22.90;87.00;;;;;;5039925;28;20247;-73
2022/08/26 04:35:58;;;;;;;10.75;5.20;;;23.00;87.90;;;;;;5053119;28;20238;-73
2022/08/26 04:38:25;;;;;;;14.18;5.32;;;23.00;88.50;;;;;;5037424;28;20236;-72
2022/08/26 04:40:52;;;;;;;11.68;5.65;;;23.00;88.90;;;;;;5044753;28;20214;-73
2022/08/26 04:43:20;;;;;;;11.68;5.80;;;22.90;89.30;;;;;;5047851;28;20801;-73
2022/08/26 04:45:47;;;;;;;15.45;5.35;;;23.00;90.00;;;;;;5033988;28;20225;-73
2022/08/26 04:48:16;;;;;;;9.60;5.43;;;23.00;90.10;;;;;;5033136;28;20666;-73
2022/08/26 04:50:43;;;;;;;11.68;5.43;;;23.00;90.20;;;;;;5046640;28;20213;-71
2022/08/26 04:53:10;;;;;;;9.05;5.22;;;23.10;90.30;;;;;;5046862;28;20210;-72
2022/08/26 04:55:38;;;;;;;8.85;5.50;;;23.00;90.10;;;;;;5033689;28;20293;-72
2022/08/26 04:58:07;;;;;;;12.00;4.93;;;23.10;89.70;;;;;;5033266;28;20247;-71
2022/08/26 05:00:35;;;;;;;9.25;5.10;;;23.20;89.50;;;;;;5033034;28;20205;-71
2022/08/26 05:03:02;;;;;;;7.93;4.65;;;23.20;89.40;;;;;;5040664;28;20213;-71
2022/08/26 05:05:29;;;;;;;10.35;5.13;;;23.20;89.20;;;;;;5043019;28;20203;-71
2022/08/26 05:07:56;;;;;;;8.55;4.60;;;23.30;88.70;;;;;;5043555;28;20217;-71
2022/08/26 05:10:23;;;;;;;12.18;4.60;;;23.30;87.80;;;;;;5050390;28;20705;-71
2022/08/26 05:12:50;;;;;;;11.02;4.97;;;23.40;87.00;;;;;;5041521;28;20213;-72
2022/08/26 05:15:16;;;;;;;10.27;4.55;;;23.40;86.40;;;;;;5053197;28;20228;-72
2022/08/26 05:17:45;;;;;;;10.00;4.40;;;23.50;85.90;;;;;;5037329;28;20203;-72
2022/08/26 05:20:11;;;;;;;10.60;4.85;;;23.50;85.60;;;;;;5033768;28;20297;-72
2022/08/26 05:22:38;;;;;;;9.80;5.00;;;23.60;85.50;;;;;;5037870;28;20226;-72
2022/08/26 05:25:06;;;;;;;15.88;5.35;;;23.70;85.20;;;;;;5040784;28;20216;-71
2022/08/26 05:27:33;;;;;;;12.05;4.93;;;23.70;85.00;;;;;;5045795;28;20658;-70
2022/08/26 05:30:00;;;;;;;9.32;4.70;;;23.80;84.40;;;;;;5032552;28;20233;-72
2022/08/26 05:32:27;;;;;;;10.50;5.18;;;24.00;84.40;;;;;;5051843;28;20244;-72
2022/08/26 05:34:56;;;;;;;6.78;4.20;;;24.10;84.20;;;;;;5048320;28;20203;-71
2022/08/26 05:37:22;;;;;;;14.27;4.93;;;24.20;84.00;;;;;;5042550;28;20659;-73
2022/08/26 05:39:49;;;;;;;12.63;4.75;;;24.30;83.70;;;;;;5038053;28;20214;-72
2022/08/26 05:42:16;;;;;;;12.80;4.95;;;24.40;83.50;;;;;;5044313;28;20202;-72
2022/08/26 05:44:43;;;;;;;15.35;4.85;;;24.60;83.30;;;;;;5038822;28;20203;-72
2022/08/26 05:47:10;;;;;;;9.02;4.43;;;24.60;83.10;;;;;;5044973;28;20224;-72
2022/08/26 05:49:38;;;;;;;8.70;4.22;;;24.70;82.50;;;;;;5038012;28;20257;-71
2022/08/26 05:52:07;;;;;;;11.27;4.88;;;24.80;82.20;;;;;;5046161;28;20218;-71
2022/08/26 05:54:33;;;;;;;8.32;4.00;;;24.80;81.70;;;;;;5039350;28;20270;-73
2022/08/26 05:57:00;;;;;;;10.10;4.78;;;24.90;81.50;;;;;;5044749;28;20228;-72
2022/08/26 05:59:27;;;;;;;8.63;4.30;;;25.00;81.40;;;;;;5040221;28;20498;-72
2022/08/26 06:01:54;;;;;;;6.70;4.25;;;25.00;80.60;;;;;;5048341;28;20214;-71
2022/08/26 06:04:21;;;;;;;8.40;4.40;;;25.10;79.80;;;;;;5031197;28;20218;-71
2022/08/26 06:06:48;;;;;;;10.98;4.03;;;25.20;79.30;;;;;;5031333;28;20617;-71
2022/08/26 06:09:16;;;;;;;8.25;3.90;;;25.20;78.20;;;;;;5044936;28;20205;-71
2022/08/26 06:11:43;;;;;;;7.65;3.63;;;25.20;77.60;;;;;;5031746;28;20613;-71
2022/08/26 06:14:10;;;;;;;13.43;4.03;;;25.20;77.10;;;;;;5049434;28;20209;-72
2022/08/26 06:16:39;;;;;;;8.50;3.45;;;25.30;76.80;;;;;;5045964;28;20209;-72
2022/08/26 06:19:08;;;;;;;7.95;4.20;;;25.30;76.70;;;;;;5045995;28;20210;-69
2022/08/26 06:21:37;;;;;;;9.27;3.83;;;25.30;76.50;;;;;;5040377;28;20260;-68
2022/08/26 06:26:54;;;;;;;13.02;4.53;;;25.50;76.30;;;;;;5043362;28;20667;-70
2022/08/26 06:29:23;;;;;;;12.05;3.70;;;25.60;75.80;;;;;;5048582;28;20198;-69
2022/08/26 06:31:50;;;;;;;10.50;4.18;;;25.60;75.80;;;;;;5039958;28;20218;-69
2022/08/26 06:34:17;;;;;;;7.50;3.60;;;25.70;76.00;;;;;;5045361;28;20206;-70
2022/08/26 06:36:46;;;;;;;11.02;4.05;;;25.80;75.90;;;;;;5042446;28;20732;-69
2022/08/26 06:39:14;;;;;;;12.82;4.43;;;25.90;76.20;;;;;;5044815;28;20256;-70
2022/08/26 06:41:43;;;;;;;9.05;4.10;;;25.90;76.10;;;;;;5036166;28;20206;-71
2022/08/26 06:44:13;;;;;;;12.07;4.22;;;26.00;76.10;;;;;;5036095;28;20211;-71
2022/08/26 06:46:40;;;;;;;14.35;5.18;;;26.00;76.00;;;;;;5033992;28;20225;-71
2022/08/26 06:49:07;;;;;;;11.35;4.75;;;26.10;76.10;;;;;;5042051;28;20282;-71
2022/08/26 06:51:37;;;;;;;12.15;4.40;;;26.10;75.70;;;;;;5047764;28;20569;-72
2022/08/26 06:54:05;;;;;;;10.40;4.25;;;26.20;75.80;;;;;;5045690;28;20215;-72
2022/08/26 06:56:35;;;;;;;12.35;4.45;;;26.10;75.80;;;;;;5049429;28;20214;-72
2022/08/26 06:59:02;;;;;;;11.25;4.50;;;26.10;75.80;;;;;;5043279;28;20720;-73
2022/08/26 07:01:33;;;;;;;10.80;4.43;;;26.20;75.90;;;;;;5053806;28;20746;-73
2022/08/26 07:04:02;;;;;;;15.13;4.13;;;26.20;75.90;;;;;;5048168;28;20214;-72
2022/08/26 07:06:29;;;;;;;13.30;4.60;;;26.30;76.70;;;;;;5039867;28;20275;-70
2022/08/26 07:09:02;;;;;;;12.93;4.18;;;26.40;76.00;;;;;;5044723;28;20630;-71
2022/08/26 07:11:29;;;;;;;20.67;5.80;;;26.40;74.90;;;;;;5051064;28;20217;-70
2022/08/26 07:13:57;;;;;;;18.83;6.18;;;26.50;75.00;;;;;;5048997;28;20226;-70
2022/08/26 07:16:25;;;;;;;19.30;5.70;;;26.60;75.10;;;;;;5037855;28;20214;-69
2022/08/26 07:18:54;;;;;;;14.32;5.57;;;26.70;75.10;;;;;;5051105;28;20312;-68
2022/08/26 07:21:22;;;;;;;14.10;5.90;;;26.80;75.00;;;;;;5055365;28;20209;-69
2022/08/26 07:23:49;;;;;;;19.35;5.47;;;26.80;75.10;;;;;;5053889;28;20209;-69
2022/08/26 07:26:18;;;;;;;14.38;4.97;;;26.90;74.80;;;;;;5048390;28;20568;-68
2022/08/26 07:28:47;;;;;;;13.10;5.00;;;27.00;75.00;;;;;;5041204;28;20225;-66
2022/08/26 07:31:16;;;;;;;18.17;4.88;;;27.20;74.40;;;;;;5051445;28;20510;-68
2022/08/26 07:33:43;;;;;;;14.25;4.68;;;27.20;74.20;;;;;;5051811;28;20674;-67
2022/08/26 07:36:13;;;;;;;10.23;4.30;;;27.30;73.00;;;;;;5036912;28;20728;-68
2022/08/26 07:38:43;;;;;;;10.43;3.85;;;27.30;73.10;;;;;;5033785;28;20562;-66
2022/08/26 07:41:12;;;;;;;13.45;4.22;;;27.30;72.50;;;;;;5041933;28;20639;-69
2022/08/26 07:43:39;;;;;;;8.93;4.80;;;27.40;72.30;;;;;;5039118;28;20232;-68
2022/08/26 07:46:08;;;;;;;10.65;4.65;;;27.50;72.30;;;;;;5041006;28;20735;-68
2022/08/26 07:48:36;;;;;;;16.05;4.70;;;27.50;71.70;;;;;;5050139;28;20693;-68
2022/08/26 07:51:03;;;;;;;11.88;4.55;;;27.70;71.70;;;;;;5042351;28;20728;-67
2022/08/26 07:53:31;;;;;;;9.00;4.38;;;27.70;71.70;;;;;;5032786;28;20218;-68
2022/08/26 07:55:58;;;;;;;9.75;4.18;;;27.90;71.70;;;;;;5040801;28;20661;-67
2022/08/26 07:58:25;;;;;;;9.63;4.38;;;28.00;70.80;;;;;;5037898;28;20234;-66
2022/08/26 08:00:52;;;;;;;11.65;4.28;;;28.10;70.20;;;;;;5038437;28;20674;-68
2022/08/26 08:03:19;;;;;;;11.20;4.18;;;28.20;69.90;;;;;;5039056;28;20205;-66
2022/08/26 08:05:47;;;;;;;8.80;3.85;;;28.30;69.60;;;;;;5038585;28;20271;-67
2022/08/26 08:08:14;;;;;;;11.70;4.00;;;28.40;69.80;;;;;;5050089;28;20556;-67
2022/08/26 08:10:43;;;;;;;9.35;4.22;;;28.50;69.40;;;;;;5035287;28;20203;-68
2022/08/26 08:13:11;;;;;;;11.27;4.10;;;28.60;69.40;;;;;;5041987;28;20206;-67
2022/08/26 08:15:38;;;;;;;8.05;4.10;;;28.70;69.70;;;;;;5046505;28;20573;-65
2022/08/26 08:18:06;;;;;;;11.82;4.90;;;28.80;69.30;;;;;;5036006;28;20206;-65
2022/08/26 08:20:33;;;;;;;7.45;4.13;;;29.00;68.80;;;;;;5036114;28;20559;-64
2022/08/26 08:23:02;;;;;;;10.27;4.25;;;29.20;68.30;;;;;;5042961;28;20230;-65
2022/08/26 08:25:30;;;;;;;8.27;4.70;;;29.40;68.10;;;;;;5046699;28;20221;-66
2022/08/26 08:27:58;;;;;;;7.40;3.75;;;29.50;67.60;;;;;;5044643;28;20499;-65
2022/08/26 08:30:26;;;;;;;10.60;4.18;;;29.60;66.50;;;;;;5034493;28;20206;-66
2022/08/26 08:32:53;;;;;;;9.35;4.32;;;29.70;65.90;;;;;;5043142;28;20619;-64
2022/08/26 08:35:21;;;;;;;8.07;4.22;;;29.70;65.80;;;;;;5050211;28;20250;-64
2022/08/26 08:37:50;;;;;;;9.35;4.63;;;29.80;65.10;;;;;;5051620;28;20221;-64
2022/08/26 08:40:17;;;;;;;15.82;4.20;;;29.70;65.00;;;;;;5049769;28;20242;-64
2022/08/26 08:42:47;;;;;;;8.48;3.80;;;29.80;65.70;;;;;;5054638;28;20205;-65
2022/08/26 08:45:22;;;;;;;8.02;4.13;;;29.90;65.90;;;;;;5038259;28;20210;-66
2022/08/26 08:47:55;;;;;;;15.80;4.70;;;30.10;64.90;;;;;;5035233;28;20223;-65
2022/08/26 08:50:26;;;;;;;8.65;4.38;;;30.20;64.60;;;;;;5045796;28;20216;-66
2022/08/26 08:53:07;;;;;;;10.60;4.45;;;30.30;64.90;;;;;;5043058;28;20206;-67
2022/08/26 08:55:46;;;;;;;9.32;3.90;;;30.50;64.30;;;;;;5044964;28;20209;-65
2022/08/26 08:58:17;;;;;;;8.32;3.85;;;30.60;63.80;;;;;;5044259;28;20209;-65
2022/08/26 09:00:51;;;;;;;8.27;3.95;;;30.80;63.10;;;;;;5040358;28;20656;-64
2022/08/26 09:03:33;;;;;;;8.32;3.92;;;30.90;63.20;;;;;;5048029;28;20250;-64
2022/08/26 09:06:03;;;;;;;14.43;4.90;;;31.10;63.40;;;;;;5054043;28;20197;-66
2022/08/26 09:08:35;;;;;;;9.95;4.18;;;31.40;62.50;;;;;;5051319;28;20218;-65
2022/08/26 09:11:03;;;;;;;8.68;4.20;;;31.50;61.00;;;;;;5044575;28;20584;-66
2022/08/26 09:13:30;;;;;;;10.10;4.05;;;31.70;60.20;;;;;;5049166;28;20228;-65
2022/08/26 09:16:07;;;;;;;12.40;4.80;;;31.80;59.50;;;;;;5051255;28;20213;-63
2022/08/26 09:18:56;;;;;;;8.80;4.65;;;32.10;59.90;;;;;;5050881;28;20213;-65
2022/08/26 09:21:24;;;;;;;9.95;3.78;;;32.10;60.60;;;;;;5045450;28;20198;-65
2022/08/26 09:23:52;;;;;;;10.43;4.70;;;32.30;60.90;;;;;;5037408;28;20232;-66
2022/08/26 09:26:22;;;;;;;8.93;4.68;;;32.40;60.50;;;;;;5033639;28;20302;-65
2022/08/26 09:28:55;;;;;;;14.77;4.90;;;32.60;60.60;;;;;;5036477;28;20575;-65
2022/08/26 09:31:26;;;;;;;9.65;4.75;;;32.70;60.40;;;;;;5051124;28;20218;-66
2022/08/26 09:34:06;;;;;;;7.25;4.05;;;33.10;60.00;;;;;;5050673;28;20297;-66
2022/08/26 09:36:36;;;;;;;9.68;5.05;;;33.60;59.50;;;;;;5042789;28;20236;-64
2022/08/26 09:39:04;;;;;;;9.55;4.65;;;34.00;58.30;;;;;;5041233;28;20582;-67
2022/08/26 09:41:34;;;;;;;8.60;4.43;;;34.20;57.50;;;;;;5053248;28;20229;-65
2022/08/26 09:44:16;;;;;;;7.57;4.25;;;34.50;57.60;;;;;;5063484;28;20220;-66
2022/08/26 09:46:52;;;;;;;9.50;5.05;;;34.80;57.00;;;;;;5065426;28;20205;-66
2022/08/26 09:49:29;;;;;;;8.63;3.92;;;35.20;56.20;;;;;;5057951;28;20227;-65
2022/08/26 09:52:10;;;;;;;11.25;4.32;;;35.60;55.20;;;;;;5065301;28;20193;-65
2022/08/26 09:54:38;;;;;;;8.18;4.53;;;35.60;54.40;;;;;;5060823;28;20201;-66
2022/08/26 09:57:17;;;;;;;8.65;4.40;;;35.50;54.70;;;;;;5065717;28;20431;-65
2022/08/26 09:59:44;;;;;;;7.43;3.22;;;35.50;54.30;;;;;;5062901;28;20228;-65
2022/08/26 10:02:38;;;;;;;7.78;3.80;;;35.40;53.90;;;;;;5065547;28;20569;-66
2022/08/26 10:05:08;;;;;;;9.85;4.40;;;35.40;54.10;;;;;;5056434;28;20514;-65
2022/08/26 10:07:40;;;;;;;11.32;3.65;;;35.70;53.70;;;;;;5068061;28;20230;-66
2022/08/26 10:10:11;;;;;;;7.57;3.63;;;35.80;51.80;;;;;;5061816;28;20543;-66
2022/08/26 10:12:46;;;;;;;9.27;3.80;;;35.70;51.50;;;;;;5062410;28;20212;-66
2022/08/26 10:15:15;;;;;;;8.35;3.20;;;35.60;51.10;;;;;;5060322;28;20581;-66
2022/08/26 10:17:49;;;;;;;8.95;3.67;;;35.50;50.80;;;;;;5066941;28;20211;-66
2022/08/26 10:20:21;;;;;;;6.63;3.22;;;35.40;51.80;;;;;;5071069;28;20204;-67
2022/08/26 10:22:54;;;;;;;5.35;3.47;;;35.40;51.20;;;;;;5067708;28;20228;-67
2022/08/26 10:25:26;;;;;;;8.35;3.50;;;35.40;50.50;;;;;;5069312;28;20548;-67
2022/08/26 10:28:01;;;;;;;11.27;3.80;;;35.30;50.40;;;;;;5066538;28;20209;-67
2022/08/26 10:30:34;;;;;;;6.60;3.25;;;35.30;50.20;;;;;;5055849;28;20216;-66
2022/08/26 10:33:07;;;;;;;8.98;3.75;;;35.40;50.10;;;;;;5066923;28;20201;-66
2022/08/26 10:35:36;;;;;;;6.82;3.40;;;35.50;50.30;;;;;;5068027;28;20780;-66
2022/08/26 10:38:09;;;;;;;5.30;3.45;;;35.80;49.70;;;;;;5069161;28;20217;-65
2022/08/26 10:40:46;;;;;;;6.60;3.33;;;35.80;49.20;;;;;;5071884;28;20197;-66
2022/08/26 10:43:19;;;;;;;8.95;3.70;;;35.70;48.80;;;;;;5072657;28;20209;-67
2022/08/26 10:45:50;;;;;;;6.88;3.88;;;35.70;48.30;;;;;;5070924;28;20209;-66
2022/08/26 10:48:24;;;;;;;7.13;3.45;;;35.50;47.40;;;;;;5070544;28;20658;-67
2022/08/26 10:50:51;;;;;;;6.10;3.38;;;35.40;47.90;;;;;;5072562;28;20636;-66
2022/08/26 10:53:23;;;;;;;7.03;3.40;;;35.30;47.90;;;;;;5068530;28;20201;-66
2022/08/26 10:56:02;;;;;;;8.30;3.90;;;35.20;47.70;;;;;;5060132;28;20209;-67
2022/08/26 10:58:48;;;;;;;8.88;4.28;;;35.10;47.50;;;;;;5066378;28;20215;-66
2022/08/26 11:04:16;;;;;;;6.93;4.30;;;35.20;47.20;;;;;;5067572;28;20255;-66
2022/08/26 11:06:44;;;;;;;6.47;4.28;;;35.60;46.90;;;;;;5061376;28;20208;-66
2022/08/26 11:09:31;;;;;;;4.30;3.80;;;36.10;47.50;;;;;;5060752;28;20311;-67
2022/08/26 11:11:59;;;;;;;9.48;4.28;;;36.30;46.30;;;;;;5064084;28;20685;-67
2022/08/26 11:14:37;;;;;;;6.53;4.03;;;36.40;46.30;;;;;;5065682;28;20267;-68
2022/08/26 11:17:07;;;;;;;9.93;4.65;;;36.40;46.90;;;;;;5067405;28;20657;-67
2022/08/26 11:19:58;;;;;;;6.72;3.78;;;36.20;46.20;;;;;;5063379;28;20205;-69
2022/08/26 11:22:27;;;;;;;5.57;3.60;;;36.80;46.50;;;;;;5062342;28;20884;-68
2022/08/26 11:25:14;;;;;;;7.32;3.80;;;36.50;46.10;;;;;;5068333;28;20261;-68
2022/08/26 11:28:06;;;;;;;7.90;4.72;;;36.70;45.90;;;;;;5070908;28;20209;-69
2022/08/26 11:30:48;;;;;;;6.65;4.00;;;37.00;45.60;;;;;;5071953;28;20201;-65
2022/08/26 11:33:58;;;;;;;4.65;4.10;;;37.10;44.50;;;;;;5068688;28;20228;-68
2022/08/26 11:36:58;;;;;;;7.28;4.53;;;36.90;44.50;;;;;;5071573;28;20229;-69
2022/08/26 11:39:31;;;;;;;12.32;3.78;;;37.00;45.00;;;;;;5064613;28;20193;-69
2022/08/26 11:42:02;;;;;;;5.97;4.03;;;37.00;45.10;;;;;;5065462;28;20576;-67
2022/08/26 11:44:39;;;;;;;7.57;3.78;;;36.90;45.20;;;;;;5063115;28;20220;-67
2022/08/26 11:47:09;;;;;;;5.38;3.80;;;36.80;45.00;;;;;;5059674;28;20198;-66
2022/08/26 11:49:36;;;;;;;7.07;3.78;;;36.80;45.20;;;;;;5066710;28;20225;-66
2022/08/26 11:52:16;;;;;;;6.93;4.25;;;36.90;45.70;;;;;;5070783;28;20292;-68
2022/08/26 11:55:01;;;;;;;4.57;3.70;;;36.70;45.00;;;;;;5071828;28;20212;-68
2022/08/26 11:57:30;;;;;;;9.80;4.20;;;36.50;45.20;;;;;;5069593;28;20197;-67
2022/08/26 11:59:58;;;;;;;8.50;4.20;;;36.40;45.70;;;;;;5069874;28;20251;-68
2022/08/26 12:02:26;;;;;;;5.70;3.72;;;36.40;45.10;;;;;;5065974;28;20209;-68
2022/08/26 12:04:55;;;;;;;7.90;4.00;;;36.30;45.30;;;;;;5061214;28;20213;-68
2022/08/26 12:07:25;;;;;;;7.25;4.13;;;36.20;44.90;;;;;;5070958;28;20208;-67
2022/08/26 12:09:56;;;;;;;8.50;4.20;;;36.10;45.10;;;;;;5067771;28;20213;-67
2022/08/26 12:12:27;;;;;;;6.38;4.20;;;36.00;44.30;;;;;;5062798;28;20209;-66
2022/08/26 12:15:12;;;;;;;5.78;3.88;;;36.00;44.20;;;;;;5058218;28;20208;-67
2022/08/26 12:17:40;;;;;;;8.48;3.83;;;36.20;44.00;;;;;;5064083;28;20653;-66
2022/08/26 12:20:18;;;;;;;7.32;3.97;;;36.30;43.30;;;;;;5064726;28;20194;-65
2022/08/26 12:22:46;;;;;;;5.07;3.72;;;36.30;42.70;;;;;;5063879;28;20653;-67
2022/08/26 12:25:12;;;;;;;6.28;3.55;;;36.20;42.00;;;;;;5066692;28;20213;-68
2022/08/26 12:27:41;;;;;;;6.90;3.65;;;36.10;41.90;;;;;;5071368;28;20532;-66
2022/08/26 12:30:12;;;;;;;5.32;3.35;;;36.20;41.80;;;;;;5066339;28;20232;-66
2022/08/26 12:32:42;;;;;;;6.38;3.40;;;36.20;41.80;;;;;;5065034;28;20217;-66
2022/08/26 12:35:11;;;;;;;4.43;3.42;;;36.10;41.60;;;;;;5066958;28;20599;-65
2022/08/26 12:37:41;;;;;;;6.15;3.30;;;36.00;41.20;;;;;;5065646;28;20198;-66
2022/08/26 12:40:34;;;;;;;5.80;3.10;;;35.90;41.70;;;;;;5067639;28;20212;-66
2022/08/26 12:43:03;;;;;;;7.15;4.47;;;36.00;41.70;;;;;;5065057;28;20271;-64
2022/08/26 12:45:34;;;;;;;5.13;3.92;;;36.10;41.60;;;;;;5063228;28;20588;-66
2022/08/26 12:48:06;;;;;;;6.10;3.42;;;36.20;41.30;;;;;;5065288;28;20217;-66
2022/08/26 12:50:35;;;;;;;6.25;3.17;;;36.10;40.80;;;;;;5065375;28;20200;-66
2022/08/26 12:53:05;;;;;;;5.00;3.05;;;36.10;41.10;;;;;;5067386;28;20677;-66
2022/08/26 12:55:39;;;;;;;5.18;4.00;;;36.00;41.10;;;;;;5065819;28;20209;-65
2022/08/26 12:58:20;;;;;;;7.35;3.08;;;35.90;41.60;;;;;;5068386;28;20229;-66
2022/08/26 13:00:50;;;;;;;5.40;3.75;;;35.80;42.00;;;;;;5068455;28;20258;-66
2022/08/26 13:03:42;;;;;;;6.88;3.47;;;35.90;42.20;;;;;;5065067;28;20208;-66
2022/08/26 13:06:15;;;;;;;8.48;3.67;;;36.00;42.10;;;;;;5065418;28;20531;-67
2022/08/26 13:08:44;;;;;;;4.82;3.53;;;36.00;41.70;;;;;;5066796;28;20697;-68